Time;durP1;ratioP1;P1;durP2;ratioP2;P2;SDS_P1;SDS_P2;PMS_P1;PMS_P2;Temp;Humidity;BMP_temperature;BMP_pressure;BME280_temperature;BME280_humidity;BME280_pressure;Samples;Min_cycle;Max_cycle;Signal;HPM_P1;HPM_P2
2021/08/25 00:01:06;;;;;;;32.13;9.98;;;;;;;11.41;78.71;100001.75;5132773;27;20055;-78
2021/08/25 00:03:33;;;;;;;27.52;10.27;;;;;;;11.36;78.60;100010.03;5132807;27;20035;-77
2021/08/25 00:05:59;;;;;;;30.48;11.18;;;;;;;11.37;78.88;100005.59;5112542;28;20324;-78
2021/08/25 00:08:25;;;;;;;32.50;9.65;;;;;;;11.35;78.59;100003.03;5131474;27;20066;-75
2021/08/25 00:10:51;;;;;;;29.15;9.90;;;;;;;11.34;78.61;99996.09;5132651;27;20043;-75
2021/08/25 00:13:18;;;;;;;27.17;9.60;;;;;;;11.32;78.76;99995.34;5132494;27;20500;-77
2021/08/25 00:15:44;;;;;;;;;;;;;;;11.31;78.76;99993.66;5132155;27;20047;-77
2021/08/25 00:18:11;;;;;;;25.80;8.90;;;;;;;11.27;78.84;99998.31;5131834;27;19923;-78
2021/08/25 00:20:37;;;;;;;30.67;10.02;;;;;;;11.25;78.57;100002.06;5079679;27;20039;-76
2021/08/25 00:23:04;;;;;;;33.38;10.50;;;;;;;11.29;79.05;99998.19;5131392;27;20151;-76
2021/08/25 00:25:32;;;;;;;24.70;10.18;;;;;;;11.30;79.26;99994.59;5131667;27;20039;-75
2021/08/25 00:27:57;;;;;;;26.25;9.90;;;;;;;11.31;79.45;99985.69;5131220;27;20070;-74
2021/08/25 00:30:24;;;;;;;35.30;10.57;;;;;;;11.31;79.00;99986.56;5131945;27;20043;-74
2021/08/25 00:32:50;;;;;;;24.20;9.50;;;;;;;11.33;78.45;99995.22;5132310;27;20054;-76
2021/08/25 00:35:16;;;;;;;25.83;9.18;;;;;;;11.36;78.55;99995.97;5131328;27;20168;-75
2021/08/25 00:37:42;;;;;;;27.38;9.30;;;;;;;11.38;78.32;99992.22;5132331;27;20058;-77
2021/08/25 00:40:09;;;;;;;31.63;9.63;;;;;;;11.40;78.55;99992.97;5132424;27;20078;-79
2021/08/25 00:42:35;;;;;;;25.95;9.18;;;;;;;11.42;78.10;99988.38;5097187;28;20192;-77
2021/08/25 00:45:04;;;;;;;23.33;8.05;;;;;;;11.41;77.68;99991.97;5119255;27;20117;-73
2021/08/25 00:47:43;;;;;;;27.85;8.70;;;;;;;11.45;78.18;99995.25;5132141;27;20139;-78
2021/08/25 00:50:10;;;;;;;24.55;8.93;;;;;;;11.49;77.94;100000.22;5130787;28;20043;-76
2021/08/25 00:52:38;;;;;;;29.05;9.88;;;;;;;11.52;77.71;99998.28;5131648;27;20042;-74
2021/08/25 00:55:05;;;;;;;26.58;9.25;;;;;;;11.53;77.79;100000.00;5130965;27;20480;-76
2021/08/25 00:57:35;;;;;;;27.20;9.82;;;;;;;11.50;77.87;99995.75;5131774;27;20070;-75
2021/08/25 01:00:05;;;;;;;25.80;10.20;;;;;;;11.49;78.17;99988.78;5131546;27;20435;-77
2021/08/25 01:02:52;;;;;;;25.17;9.77;;;;;;;11.46;77.99;99984.56;5131906;27;20047;-74
2021/08/25 01:05:18;;;;;;;23.25;9.63;;;;;;;11.45;77.72;99987.31;5131011;27;20041;-74
2021/08/25 01:07:45;;;;;;;23.35;8.77;;;;;;;11.43;77.65;99987.44;5131541;27;20043;-73
2021/08/25 01:10:38;;;;;;;24.55;9.75;;;;;;;11.31;77.84;99985.69;5130472;28;20043;-75
2021/08/25 01:13:11;;;;;;;26.80;8.80;;;;;;;11.31;77.90;99983.06;5127740;27;20047;-74
2021/08/25 01:15:42;;;;;;;26.08;9.02;;;;;;;11.31;78.00;99985.69;5131267;27;20082;-74
2021/08/25 01:18:10;;;;;;;20.85;8.73;;;;;;;11.31;77.82;99991.88;5131482;27;20039;-75
2021/08/25 01:20:36;;;;;;;24.05;8.23;;;;;;;11.29;77.81;99992.91;5130682;28;20051;-78
2021/08/25 01:23:02;;;;;;;22.95;9.13;;;;;;;11.28;77.65;99986.78;5131876;27;20043;-76
2021/08/25 01:25:33;;;;;;;20.35;8.90;;;;;;;11.22;77.83;99981.13;5130377;28;20035;-76
2021/08/25 01:28:02;;;;;;;23.83;8.68;;;;;;;11.14;77.87;100000.19;5131137;27;20055;-74
2021/08/25 01:30:31;;;;;;;27.52;8.63;;;;;;;11.10;78.19;99994.31;5112758;28;20078;-73
2021/08/25 01:33:01;;;;;;;23.13;8.27;;;;;;;11.13;78.26;99993.22;5131371;27;20047;-74
2021/08/25 01:35:36;;;;;;;23.85;8.88;;;;;;;11.16;78.25;99980.63;5131630;27;20043;-77
2021/08/25 01:38:03;;;;;;;24.45;8.85;;;;;;;11.21;77.92;99984.72;5131200;27;20054;-74
2021/08/25 01:40:31;;;;;;;22.60;9.07;;;;;;;11.22;77.89;99979.28;5127642;27;20126;-75
2021/08/25 01:42:57;;;;;;;23.42;8.52;;;;;;;11.29;78.01;99977.88;5129872;28;20452;-76
2021/08/25 01:45:23;;;;;;;25.42;8.57;;;;;;;11.31;77.81;99983.06;5130046;27;20130;-73
2021/08/25 01:48:03;;;;;;;20.02;7.70;;;;;;;11.31;77.19;99969.81;5130646;27;20429;-75
2021/08/25 01:50:29;;;;;;;23.92;9.18;;;;;;;11.34;76.84;99980.19;5130855;28;20094;-74
2021/08/25 01:52:55;;;;;;;24.20;7.85;;;;;;;11.37;76.88;99971.16;5131676;27;20043;-74
2021/08/25 01:55:21;;;;;;;26.67;8.52;;;;;;;11.40;76.48;99985.03;5130929;27;20058;-75
2021/08/25 01:57:46;;;;;;;22.88;8.55;;;;;;;11.39;76.32;99988.63;5131610;27;20054;-75
2021/08/25 02:00:13;;;;;;;19.95;8.25;;;;;;;11.36;76.06;99988.84;5129708;27;20039;-75
2021/08/25 02:02:39;;;;;;;24.92;8.60;;;;;;;11.33;76.01;99984.63;5127716;28;20063;-75
2021/08/25 02:05:05;;;;;;;24.52;8.68;;;;;;;11.32;76.61;99988.22;5130943;27;20067;-73
2021/08/25 02:07:31;;;;;;;24.70;9.48;;;;;;;11.34;76.47;99982.84;5134144;27;20039;-75
2021/08/25 02:09:57;;;;;;;22.58;8.85;;;;;;;11.35;76.43;99981.84;5134031;27;20034;-77
2021/08/25 02:12:23;;;;;;;28.08;8.30;;;;;;;11.34;75.90;99974.91;5133761;27;20092;-74
2021/08/25 02:14:48;;;;;;;21.88;7.95;;;;;;;11.37;76.29;99973.81;5135050;27;20049;-74
2021/08/25 02:17:14;;;;;;;19.15;9.15;;;;;;;11.40;75.96;99985.03;5134218;27;20519;-73
2021/08/25 02:19:40;;;;;;;19.60;7.82;;;;;;;11.46;75.86;99971.31;5134715;27;20376;-74
2021/08/25 02:22:06;;;;;;;23.70;8.55;;;;;;;11.49;75.53;99971.06;5134593;27;20057;-73
2021/08/25 02:24:32;;;;;;;18.42;7.97;;;;;;;11.46;75.36;99984.56;5134288;27;20043;-72
2021/08/25 02:26:57;;;;;;;27.52;7.35;;;;;;;11.53;74.77;99979.63;5134000;27;20034;-77
2021/08/25 02:29:23;;;;;;;19.75;7.57;;;;;;;11.56;74.06;99983.84;5134270;27;20500;-75
2021/08/25 02:31:49;;;;;;;21.38;8.07;;;;;;;11.58;74.82;99985.41;5134622;27;20046;-74
2021/08/25 02:34:15;;;;;;;25.90;10.10;;;;;;;11.63;74.61;99982.44;5134213;27;20054;-75
2021/08/25 02:36:41;;;;;;;23.45;8.48;;;;;;;11.61;73.67;99976.38;5133911;27;20039;-76
2021/08/25 02:39:07;;;;;;;27.73;7.60;;;;;;;11.60;73.38;99982.66;5134087;27;20058;-73
2021/08/25 02:41:33;;;;;;;18.08;7.90;;;;;;;11.58;73.22;99971.34;5133484;27;20511;-73
2021/08/25 02:43:59;;;;;;;18.95;7.38;;;;;;;11.48;73.59;99972.03;5133722;27;20172;-74
2021/08/25 02:46:24;;;;;;;27.45;8.10;;;;;;;11.45;73.22;99972.28;5133776;27;20125;-79
2021/08/25 02:48:50;;;;;;;21.67;8.27;;;;;;;11.41;72.42;99973.44;5134283;27;20485;-76
2021/08/25 02:51:16;;;;;;;22.30;8.05;;;;;;;11.43;72.89;99973.34;5133241;27;20035;-77
2021/08/25 02:53:42;;;;;;;19.30;7.60;;;;;;;11.49;73.04;99973.72;5134595;27;20039;-80
2021/08/25 02:56:08;;;;;;;25.10;9.82;;;;;;;11.58;72.51;99976.63;5133373;27;20039;-77
2021/08/25 02:58:34;;;;;;;19.77;7.93;;;;;;;11.64;72.21;99982.31;5133930;27;20046;-77
2021/08/25 03:00:59;;;;;;;24.70;8.25;;;;;;;11.73;71.83;99988.69;5133460;27;20035;-80
2021/08/25 03:03:26;;;;;;;24.23;9.25;;;;;;;11.78;71.58;99989.19;5134649;27;20419;-76
2021/08/25 03:05:51;;;;;;;23.23;8.23;;;;;;;11.81;71.17;99986.31;5133136;27;20035;-77
2021/08/25 03:08:17;;;;;;;25.60;10.50;;;;;;;11.84;70.18;99976.41;5132897;27;20039;-75
2021/08/25 03:10:43;;;;;;;18.55;7.15;;;;;;;11.80;68.25;99986.41;5121221;27;20059;-81
2021/08/25 03:13:09;;;;;;;26.60;8.20;;;;;;;11.84;68.26;99982.56;5132151;27;20574;-77
2021/08/25 03:15:35;;;;;;;20.98;7.70;;;;;;;11.81;66.40;99983.66;5133226;27;20132;-79
2021/08/25 03:18:01;;;;;;;17.27;6.93;;;;;;;11.80;65.44;99987.28;5133225;27;20073;-77
2021/08/25 03:20:26;;;;;;;23.80;7.75;;;;;;;11.81;65.76;99983.66;5133812;27;20570;-79
2021/08/25 03:22:52;;;;;;;26.05;7.35;;;;;;;11.81;65.98;99983.66;5115698;27;20043;-81
2021/08/25 03:25:18;;;;;;;22.35;7.25;;;;;;;11.75;67.55;99986.78;5115319;27;20074;-77
2021/08/25 03:27:44;;;;;;;23.77;7.82;;;;;;;11.69;68.32;99984.59;5133229;27;20570;-77
2021/08/25 03:30:10;;;;;;;35.03;11.38;;;;;;;11.56;70.72;99989.16;5133488;27;20164;-80
2021/08/25 03:32:36;;;;;;;28.25;10.93;;;;;;;11.42;71.51;99993.69;5133538;27;20507;-78
2021/08/25 03:35:02;;;;;;;28.63;10.45;;;;;;;11.33;72.56;99989.09;5081326;27;20034;-79
2021/08/25 03:37:28;;;;;;;27.70;9.48;;;;;;;11.27;72.82;99989.56;5133360;27;20445;-79
2021/08/25 03:39:53;;;;;;;24.98;9.43;;;;;;;11.21;73.35;99992.66;5132277;27;20039;-78
2021/08/25 03:42:19;;;;;;;32.30;10.52;;;;;;;11.17;73.50;99989.38;5133191;27;20043;-77
2021/08/25 03:44:45;;;;;;;28.52;9.27;;;;;;;11.16;73.96;99990.34;5098150;27;20485;-77
2021/08/25 03:47:11;;;;;;;26.35;9.35;;;;;;;11.20;73.37;99983.03;5131853;27;20066;-78
2021/08/25 03:49:36;;;;;;;23.33;8.90;;;;;;;11.24;73.10;99979.16;5133038;27;20099;-77
2021/08/25 03:52:03;;;;;;;31.23;12.18;;;;;;;11.31;72.29;99981.28;5133274;27;20035;-77
2021/08/25 03:54:29;;;;;;;28.30;10.50;;;;;;;11.41;69.98;99985.84;5133056;27;20054;-79
2021/08/25 03:56:55;;;;;;;29.23;10.90;;;;;;;11.62;70.50;99978.09;5133135;27;20039;-75
2021/08/25 03:59:21;;;;;;;23.40;9.90;;;;;;;11.77;69.13;99976.88;5133422;27;20039;-77
2021/08/25 04:01:49;;;;;;;50.22;28.23;;;;;;;11.92;67.58;99977.50;5131899;27;20074;-78
2021/08/25 04:04:16;;;;;;;31.40;12.38;;;;;;;12.14;65.70;99973.22;5133011;27;20400;-80
2021/08/25 04:06:42;;;;;;;26.40;9.75;;;;;;;12.65;63.75;99971.81;5133421;27;20073;-78
2021/08/25 04:09:08;;;;;;;20.50;9.43;;;;;;;14.26;58.16;99963.69;5132062;27;20444;-79
2021/08/25 04:11:34;;;;;;;21.35;8.07;;;;;;;15.62;54.22;99967.41;5097751;27;20039;-81
2021/08/25 04:14:00;;;;;;;18.20;7.80;;;;;;;16.78;52.59;99969.72;5133697;27;20122;-81
2021/08/25 04:16:27;;;;;;;22.80;9.27;;;;;;;17.50;51.15;99979.56;5115501;27;20547;-81
2021/08/25 04:18:53;;;;;;;21.00;8.45;;;;;;;18.34;47.08;99979.88;5132319;27;20039;-84
2021/08/25 04:21:19;;;;;;;20.60;8.55;;;;;;;18.72;45.24;99968.81;5081692;27;20054;-83
2021/08/25 04:23:45;;;;;;;23.00;8.13;;;;;;;19.04;45.31;99961.81;5114530;27;20039;-83
2021/08/25 04:26:11;;;;;;;45.72;30.20;;;;;;;19.86;43.65;99966.31;5131882;27;20042;-80
2021/08/25 04:28:37;;;;;;;27.60;8.93;;;;;;;20.59;41.80;99961.66;5130740;27;20078;-80
2021/08/25 04:31:03;;;;;;;26.58;9.90;;;;;;;21.28;40.94;99970.78;5132787;27;20468;-82
2021/08/25 04:33:29;;;;;;;29.48;11.27;;;;;;;21.78;39.44;99966.66;5114713;27;20054;-80
2021/08/25 04:35:55;;;;;;;29.05;10.60;;;;;;;22.24;38.82;99956.69;5131563;27;20042;-78
2021/08/25 04:38:21;;;;;;;32.63;10.68;;;;;;;22.98;34.98;99950.28;5132216;27;20050;-79
2021/08/25 04:40:48;;;;;;;31.67;10.95;;;;;;;22.97;34.10;99954.00;5131694;27;20765;-80
2021/08/25 04:43:13;;;;;;;35.63;12.38;;;;;;;23.03;34.53;99958.63;5096921;27;20039;-80
2021/08/25 04:45:39;;;;;;;27.17;11.60;;;;;;;23.59;33.51;99959.75;5114736;27;20353;-81
2021/08/25 04:48:05;;;;;;;32.75;11.77;;;;;;;23.57;33.42;99954.53;5098021;27;20047;-82
2021/08/25 04:50:32;;;;;;;26.50;9.18;;;;;;;23.75;31.79;99950.47;5097894;28;20474;-79
2021/08/25 04:52:59;;;;;;;25.52;8.88;;;;;;;23.69;30.97;99944.03;5114970;28;20134;-79
2021/08/25 04:55:25;;;;;;;27.43;8.20;;;;;;;23.71;29.85;99943.81;5133124;27;20047;-79
2021/08/25 04:57:50;;;;;;;28.45;8.95;;;;;;;23.83;29.43;99944.94;5080787;28;20081;-79
2021/08/25 05:00:17;;;;;;;34.13;9.90;;;;;;;24.20;28.85;99948.28;5133014;27;20058;-81
2021/08/25 05:02:42;;;;;;;38.92;9.40;;;;;;;24.73;27.90;99946.00;5132494;28;20376;-80
2021/08/25 05:05:09;;;;;;;31.38;9.75;;;;;;;25.25;26.93;99944.38;5097625;28;20042;-82
2021/08/25 05:07:35;;;;;;;33.08;10.05;;;;;;;25.68;26.60;99943.09;5115261;28;20050;-81
2021/08/25 05:10:01;;;;;;;24.55;8.85;;;;;;;25.99;26.19;99945.13;5131840;28;20161;-79
2021/08/25 05:12:27;;;;;;;28.52;8.60;;;;;;;26.47;25.54;99945.81;5080535;28;20122;-80
2021/08/25 05:14:53;;;;;;;19.42;7.68;;;;;;;26.57;25.77;99946.16;5097987;28;20131;-79
2021/08/25 05:17:19;;;;;;;20.13;7.88;;;;;;;26.99;24.89;99942.97;5132642;27;20491;-80
2021/08/25 05:19:46;;;;;;;23.00;8.50;;;;;;;27.41;23.87;99947.91;5131143;28;20039;-82
2021/08/25 05:22:11;;;;;;;18.75;7.57;;;;;;;27.95;23.75;99950.91;5131530;28;20131;-79
2021/08/25 05:24:37;;;;;;;18.05;7.78;;;;;;;28.01;23.01;99954.63;5131868;28;20035;-80
2021/08/25 05:27:04;;;;;;;20.63;7.30;;;;;;;28.08;22.68;99939.09;5134335;27;20039;-81
2021/08/25 05:29:30;;;;;;;16.42;7.20;;;;;;;28.42;22.83;99934.06;5115058;28;20051;-81
2021/08/25 05:31:56;;;;;;;25.45;8.15;;;;;;;28.30;22.36;99933.16;5096785;28;20099;-81
2021/08/25 05:34:21;;;;;;;24.50;9.20;;;;;;;27.91;23.53;99933.41;5132779;27;20405;-79
2021/08/25 05:36:47;;;;;;;14.07;6.75;;;;;;;28.35;22.29;99941.47;5131671;28;20434;-81
2021/08/25 05:39:13;;;;;;;14.32;7.15;;;;;;;28.10;22.17;99942.41;5134065;27;20046;-84
2021/08/25 05:41:39;;;;;;;22.25;8.00;;;;;;;28.77;22.03;99929.84;5136897;27;20049;-82
2021/08/25 05:44:05;;;;;;;23.55;8.38;;;;;;;29.31;21.10;99933.41;5138316;27;20510;-80
2021/08/25 05:46:33;;;;;;;18.52;7.10;;;;;;;28.63;21.59;99937.34;5118980;27;20054;-79
2021/08/25 05:49:00;;;;;;;17.50;7.20;;;;;;;29.49;21.03;99932.44;5118966;27;20108;-80
2021/08/25 05:51:26;;;;;;;24.42;7.90;;;;;;;29.40;20.94;99922.97;5135595;27;20484;-82
2021/08/25 05:53:52;;;;;;;21.70;8.10;;;;;;;28.15;21.68;99926.25;5101379;27;20035;-80
2021/08/25 05:56:19;;;;;;;13.73;6.32;;;;;;;27.97;21.73;99920.81;5084324;27;20360;-82
2021/08/25 05:58:46;;;;;;;12.85;6.38;;;;;;;27.13;22.82;99927.44;5137112;27;20047;-79
2021/08/25 06:01:13;;;;;;;20.77;7.70;;;;;;;27.56;22.40;99920.41;5135656;27;20070;-78
2021/08/25 06:03:39;;;;;;;17.20;6.90;;;;;;;27.99;22.58;99914.06;5100684;27;20099;-79
2021/08/25 06:06:04;;;;;;;19.98;7.18;;;;;;;28.72;21.62;99915.03;5135296;27;20597;-80
2021/08/25 06:08:30;;;;;;;14.35;6.70;;;;;;;28.83;20.95;99924.28;5135755;27;20480;-85
2021/08/25 06:10:56;;;;;;;15.35;6.90;;;;;;;29.36;20.09;99927.25;5083675;28;20032;-81
2021/08/25 06:13:22;;;;;;;15.07;6.68;;;;;;;29.70;19.96;99927.47;5081519;28;20058;-82
2021/08/25 06:15:48;;;;;;;14.02;6.88;;;;;;;29.14;20.56;99930.50;5116220;28;20107;-82
2021/08/25 06:18:14;;;;;;;15.45;6.65;;;;;;;29.13;20.86;99914.41;5081798;28;20123;-79
2021/08/25 06:20:39;;;;;;;13.70;8.10;;;;;;;30.18;20.24;99909.09;5115796;28;20047;-79
2021/08/25 06:23:25;;;;;;;15.73;7.72;;;;;;;31.91;18.82;99905.94;5114945;28;20150;-82
2021/08/25 06:25:51;;;;;;;12.60;7.38;;;;;;;31.78;18.84;99896.22;5115222;28;20044;-83
2021/08/25 06:28:17;;;;;;;14.30;6.77;;;;;;;32.92;17.56;99881.00;5113426;28;20047;-83
2021/08/25 06:30:43;;;;;;;18.30;7.60;;;;;;;32.73;17.43;99892.34;5114324;28;20040;-83
2021/08/25 06:33:09;;;;;;;14.37;7.17;;;;;;;33.92;16.68;99893.19;5115447;28;20096;-80
2021/08/25 06:35:35;;;;;;;18.48;7.28;;;;;;;32.47;17.71;99890.47;5079923;28;20393;-83
2021/08/25 06:38:01;;;;;;;16.00;8.17;;;;;;;32.17;17.76;99902.72;5114050;28;20108;-85
2021/08/25 06:40:27;;;;;;;12.93;6.63;;;;;;;31.38;18.86;99905.50;5096714;28;20500;-83
2021/08/25 06:42:53;;;;;;;17.87;7.80;;;;;;;31.52;18.38;99902.41;5113048;28;20047;-81
2021/08/25 06:45:19;;;;;;;15.90;7.43;;;;;;;31.23;18.42;99906.09;5114618;28;20039;-82
2021/08/25 06:47:45;;;;;;;15.37;7.23;;;;;;;32.21;18.29;99895.66;5131238;27;20047;-82
2021/08/25 06:50:11;;;;;;;10.83;6.47;;;;;;;31.98;17.86;99899.47;5115457;28;20480;-80
2021/08/25 06:52:37;;;;;;;18.13;6.35;;;;;;;32.12;17.85;99884.31;5113773;28;20043;-81
2021/08/25 06:55:03;;;;;;;13.82;6.95;;;;;;;31.75;18.41;99883.06;5080574;28;20085;-80
2021/08/25 06:57:44;;;;;;;15.30;6.45;;;;;;;32.17;17.54;99891.75;5100130;28;20051;-82
2021/08/25 07:00:10;;;;;;;14.27;6.83;;;;;;;32.29;17.91;99891.63;5114102;28;20469;-82
2021/08/25 07:02:36;;;;;;;11.60;6.07;;;;;;;32.86;17.14;99891.13;5116615;28;20050;-81
2021/08/25 07:05:05;;;;;;;10.73;5.60;;;;;;;34.15;15.97;99893.81;5114700;28;20293;-84
2021/08/25 07:07:32;;;;;;;12.45;6.82;;;;;;;34.53;15.07;99891.69;5082314;28;20092;-83
2021/08/25 07:09:58;;;;;;;12.02;6.40;;;;;;;32.90;16.05;99897.72;5097800;28;20048;-84
2021/08/25 07:12:24;;;;;;;11.20;5.68;;;;;;;30.62;18.30;99905.88;5098558;28;20085;-81
2021/08/25 07:14:51;;;;;;;11.60;6.43;;;;;;;29.92;19.32;99897.69;5114332;28;20075;-83
2021/08/25 07:17:17;;;;;;;13.10;6.07;;;;;;;29.30;19.65;99896.31;5081217;28;20039;-87
2021/08/25 07:19:43;;;;;;;14.20;6.10;;;;;;;30.60;19.07;99891.63;5064281;28;20043;-84
2021/08/25 07:22:09;;;;;;;23.05;12.32;;;;;;;32.58;17.05;99882.06;5097745;28;20600;-82
2021/08/25 07:24:35;;;;;;;24.83;10.43;;;;;;;33.38;16.50;99883.28;5114347;28;20135;-82
2021/08/25 07:27:02;;;;;;;12.33;6.43;;;;;;;34.16;15.62;99878.97;5115231;28;20572;-85
2021/08/25 07:29:28;;;;;;;14.75;6.13;;;;;;;34.86;15.15;99883.19;5095938;28;20115;-85
2021/08/25 07:31:54;;;;;;;15.27;6.60;;;;;;;33.77;16.79;99880.19;5114338;28;20119;-83
2021/08/25 07:34:20;;;;;;;18.02;8.32;;;;;;;33.49;16.54;99889.66;5116383;28;20758;-84
2021/08/25 07:36:46;;;;;;;16.60;7.13;;;;;;;33.05;16.40;99891.53;5097850;28;20484;-82
2021/08/25 07:39:12;;;;;;;13.43;7.47;;;;;;;33.17;16.46;99890.50;5095847;28;20253;-83
2021/08/25 07:41:38;;;;;;;19.15;7.32;;;;;;;33.01;16.44;99889.56;5095927;28;20492;-86
2021/08/25 07:44:06;;;;;;;19.08;7.72;;;;;;;32.34;17.01;99884.31;5078769;28;20062;-82
2021/08/25 07:46:32;;;;;;;16.73;8.77;;;;;;;34.06;16.39;99888.00;5112268;28;20100;-82
2021/08/25 07:49:01;;;;;;;14.65;7.00;;;;;;;36.09;14.78;99893.09;5112307;28;20046;-81
2021/08/25 07:51:27;;;;;;;16.75;7.40;;;;;;;36.04;14.00;99898.66;5078537;28;20051;-83
2021/08/25 07:53:54;;;;;;;13.75;7.20;;;;;;;35.16;14.98;99887.88;5130292;27;20039;-86
2021/08/25 07:56:21;;;;;;;16.77;7.75;;;;;;;35.24;14.83;99884.56;5092058;28;20512;-83
2021/08/25 07:58:47;;;;;;;15.02;7.90;;;;;;;34.76;15.39;99881.28;5076739;28;20048;-84
2021/08/25 08:01:13;;;;;;;13.68;7.30;;;;;;;33.73;15.62;99884.56;5060281;28;20038;-81
2021/08/25 08:03:39;;;;;;;13.85;7.35;;;;;;;33.40;16.19;99881.09;5075366;28;20039;-79
2021/08/25 08:06:05;;;;;;;15.98;7.15;;;;;;;35.50;14.86;99879.00;5057665;28;20725;-80
2021/08/25 08:08:33;;;;;;;13.02;7.63;;;;;;;35.41;14.91;99881.53;5074313;28;20505;-84
2021/08/25 08:11:00;;;;;;;14.25;6.82;;;;;;;33.81;15.79;99872.22;5074891;28;20059;-83
2021/08/25 08:13:26;;;;;;;16.42;7.43;;;;;;;33.04;16.77;99878.91;5026815;28;20040;-81
2021/08/25 08:15:52;;;;;;;15.07;8.00;;;;;;;32.88;17.01;99872.50;5042076;28;20074;-87
2021/08/25 08:18:27;;;;;;;17.27;7.47;;;;;;;35.56;15.36;99863.31;5058809;28;20134;-85
2021/08/25 08:20:52;;;;;;;20.00;7.30;;;;;;;34.85;15.15;99871.38;5059562;28;20546;-82
2021/08/25 08:23:22;;;;;;;15.55;8.00;;;;;;;33.91;15.86;99877.81;5043678;28;20040;-85
2021/08/25 08:25:49;;;;;;;18.13;7.70;;;;;;;34.40;15.35;99864.78;5076957;28;20058;-85
2021/08/25 08:28:45;;;;;;;20.05;6.88;;;;;;;34.57;15.37;99859.00;5059867;28;20044;-83
2021/08/25 08:31:12;;;;;;;16.30;7.32;;;;;;;34.71;15.12;99856.53;5078166;28;20105;-84
2021/08/25 08:33:55;;;;;;;14.05;6.80;;;;;;;32.76;16.37;99854.59;5075590;28;20044;-80
2021/08/25 08:36:21;;;;;;;14.40;6.57;;;;;;;32.27;16.88;99859.03;5042581;28;20139;-83
2021/08/25 08:39:04;;;;;;;14.65;7.15;;;;;;;31.68;17.74;99859.69;5062300;28;20052;-85
2021/08/25 08:42:29;;;;;;;15.70;6.88;;;;;;;31.85;17.17;99849.53;5074996;28;20054;-85
2021/08/25 08:44:56;;;;;;;17.35;6.55;;;;;;;32.09;17.17;99850.06;5042847;28;20409;-83
2021/08/25 08:47:26;;;;;;;14.48;7.40;;;;;;;30.70;18.50;99852.75;5077326;28;20044;-83
2021/08/25 08:49:55;;;;;;;21.02;7.53;;;;;;;29.25;19.10;99854.47;5075372;28;20040;-81
2021/08/25 08:52:33;;;;;;;14.40;6.25;;;;;;;29.42;19.19;99844.53;5058421;28;20036;-87
2021/08/25 08:54:59;;;;;;;14.00;7.03;;;;;;;30.97;17.95;99844.72;5044574;28;20066;-82
2021/08/25 08:57:29;;;;;;;16.60;7.45;;;;;;;32.81;16.31;99840.94;5060690;28;20080;-82
2021/08/25 09:00:04;;;;;;;15.95;7.05;;;;;;;33.86;15.43;99844.88;5062062;28;20078;-86
2021/08/25 09:02:57;;;;;;;15.00;6.97;;;;;;;33.65;16.16;99836.50;5061316;28;20044;-83
2021/08/25 09:05:27;;;;;;;16.77;6.97;;;;;;;33.58;16.50;99838.66;5110383;28;20043;-85
2021/08/25 09:08:00;;;;;;;14.45;6.50;;;;;;;34.87;15.40;99839.00;5118273;28;20070;-86
2021/08/25 09:10:33;;;;;;;17.88;7.00;;;;;;;35.10;15.19;99839.50;5120455;28;20102;-83
2021/08/25 09:13:05;;;;;;;18.05;8.15;;;;;;;33.75;15.91;99845.88;5115378;28;20051;-85
2021/08/25 09:15:35;;;;;;;16.17;8.00;;;;;;;33.36;16.41;99836.94;5082938;28;20051;-88
2021/08/25 09:18:02;;;;;;;16.60;6.88;;;;;;;33.17;16.98;99832.94;5084236;28;20513;-82
2021/08/25 09:20:30;;;;;;;15.93;7.63;;;;;;;33.46;16.72;99836.16;5101176;28;20062;-85
2021/08/25 09:23:11;;;;;;;16.50;7.47;;;;;;;34.12;15.85;99839.41;5060882;28;20057;-83
2021/08/25 09:25:37;;;;;;;16.48;6.82;;;;;;;34.62;15.54;99829.63;5043520;28;20054;-82
2021/08/25 09:28:04;;;;;;;21.85;7.63;;;;;;;32.04;17.78;99836.34;5025455;28;20052;-82
2021/08/25 09:31:07;;;;;;;21.77;11.15;;;;;;;29.61;20.27;99841.66;5026524;28;20106;-82
2021/08/25 09:33:42;;;;;;;16.92;7.20;;;;;;;29.14;20.74;99828.91;5010216;28;20048;-85
2021/08/25 09:36:14;;;;;;;18.17;7.57;;;;;;;28.70;21.54;99821.88;5025012;28;20052;-85
2021/08/25 09:38:57;;;;;;;19.35;7.82;;;;;;;27.89;22.63;99824.06;5044028;28;20482;-81
2021/08/25 09:41:31;;;;;;;17.52;8.00;;;;;;;29.10;21.63;99814.06;5026133;28;20048;-82
2021/08/25 09:43:57;;;;;;;19.10;7.20;;;;;;;29.07;21.61;99815.38;5008432;28;20420;-81
2021/08/25 09:46:25;;;;;;;18.42;7.68;;;;;;;28.72;22.09;99821.66;5021674;28;20151;-82
2021/08/25 09:48:56;;;;;;;15.13;6.75;;;;;;;27.46;23.24;99817.66;5023687;28;20106;-82
2021/08/25 09:51:38;;;;;;;21.27;7.22;;;;;;;26.85;24.55;99827.44;5006967;28;20060;-83
2021/08/25 09:54:06;;;;;;;16.95;6.50;;;;;;;27.06;24.43;99824.31;5039403;28;20044;-83
2021/08/25 09:56:34;;;;;;;15.27;6.40;;;;;;;27.35;23.92;99818.41;5056586;28;20159;-82
2021/08/25 09:59:02;;;;;;;16.20;6.90;;;;;;;26.43;25.15;99815.22;5023843;28;20124;-80
2021/08/25 10:01:28;;;;;;;15.30;6.63;;;;;;;25.54;26.68;99812.28;5041356;28;20536;-81
2021/08/25 10:03:56;;;;;;;16.80;6.60;;;;;;;25.47;26.78;99809.63;5012890;28;20052;-83
2021/08/25 10:06:24;;;;;;;17.70;7.10;;;;;;;25.24;27.67;99820.88;5010798;28;20517;-84
2021/08/25 10:08:50;;;;;;;14.73;7.32;;;;;;;24.47;28.55;99812.34;5048037;28;20039;-85
2021/08/25 10:11:21;;;;;;;18.70;6.97;;;;;;;24.36;28.73;99817.34;5100783;28;20052;-85
2021/08/25 10:13:47;;;;;;;20.35;7.22;;;;;;;24.67;29.01;99818.66;5119424;28;20419;-84
2021/08/25 10:16:41;;;;;;;19.27;6.88;;;;;;;24.04;29.95;99818.94;5120237;28;20075;-83
2021/08/25 10:19:27;;;;;;;17.10;7.18;;;;;;;23.90;30.16;99807.19;5117789;28;20126;-79
2021/08/25 10:21:58;;;;;;;15.00;7.10;;;;;;;23.77;30.52;99796.34;5082671;28;20031;-80
2021/08/25 10:24:24;;;;;;;18.38;6.85;;;;;;;23.85;30.21;99801.56;5101871;28;20147;-83
2021/08/25 10:26:58;;;;;;;19.58;7.97;;;;;;;23.22;31.65;99805.22;5118261;28;20075;-80
2021/08/25 10:29:28;;;;;;;17.52;7.30;;;;;;;23.49;31.15;99802.66;5086282;28;20046;-82
2021/08/25 10:31:57;;;;;;;15.13;7.32;;;;;;;23.57;31.18;99800.63;5101426;28;20044;-82
2021/08/25 10:34:25;;;;;;;16.17;7.65;;;;;;;23.94;31.04;99797.69;5082956;28;20040;-82
2021/08/25 10:37:12;;;;;;;17.75;7.25;;;;;;;24.42;30.08;99798.63;5117901;28;20490;-88
2021/08/25 10:39:42;;;;;;;16.30;6.85;;;;;;;23.81;30.71;99803.81;5082641;28;20086;-81
2021/08/25 10:42:09;;;;;;;15.18;6.88;;;;;;;23.57;31.31;99805.19;5057014;28;20087;-82
2021/08/25 10:44:40;;;;;;;17.15;7.25;;;;;;;23.75;31.25;99805.50;5040950;28;20501;-80
2021/08/25 10:47:17;;;;;;;18.63;6.97;;;;;;;23.98;30.93;99798.13;5041152;28;20048;-82
2021/08/25 10:49:47;;;;;;;23.75;7.65;;;;;;;24.68;29.97;99797.81;5041604;28;20095;-83
2021/08/25 10:52:13;;;;;;;33.03;7.57;;;;;;;24.17;30.59;99796.50;5023740;28;20044;-83
2021/08/25 10:54:43;;;;;;;13.43;5.82;;;;;;;24.16;30.72;99803.78;5056503;28;20053;-81
2021/08/25 10:57:14;;;;;;;15.95;6.55;;;;;;;23.58;31.49;99801.47;5007643;28;20107;-81
2021/08/25 10:59:42;;;;;;;20.58;6.75;;;;;;;23.80;30.88;99794.09;5076402;28;20045;-85
2021/08/25 11:02:13;;;;;;;13.93;6.53;;;;;;;24.05;31.07;99807.06;5025653;28;20036;-84
2021/08/25 11:04:40;;;;;;;14.98;6.70;;;;;;;23.88;31.25;99803.88;5026957;28;20044;-83
2021/08/25 11:07:13;;;;;;;15.80;6.45;;;;;;;23.52;31.92;99799.56;5009328;28;20171;-81
2021/08/25 11:09:46;;;;;;;19.55;6.85;;;;;;;22.99;32.69;99800.91;5007917;28;20545;-87
2021/08/25 11:12:17;;;;;;;17.95;7.07;;;;;;;23.16;32.50;99793.34;5023559;28;20083;-82
2021/08/25 11:14:48;;;;;;;19.95;7.10;;;;;;;23.83;31.92;99801.78;5039153;28;20150;-82
2021/08/25 11:17:25;;;;;;;18.20;7.53;;;;;;;23.64;32.07;99806.06;5039882;28;20536;-80
2021/08/25 11:20:06;;;;;;;15.10;6.35;;;;;;;23.54;32.27;99797.47;5080630;28;20192;-79
2021/08/25 11:22:41;;;;;;;14.55;7.38;;;;;;;23.25;33.21;99794.00;5114153;27;20055;-81
2021/08/25 11:25:25;;;;;;;13.32;6.30;;;;;;;23.22;33.57;99789.03;5097569;28;20043;-82
2021/08/25 11:27:52;;;;;;;17.13;6.85;;;;;;;22.68;33.92;99802.09;5082794;28;20138;-80
2021/08/25 11:30:19;;;;;;;15.80;6.97;;;;;;;22.88;34.11;99787.91;5114393;27;20396;-83